Time;durP1;ratioP1;P1;durP2;ratioP2;P2;SDS_P1;SDS_P2;PMS_P1;PMS_P2;Temp;Humidity;BMP_temperature;BMP_pressure;BME280_temperature;BME280_humidity;BME280_pressure;Samples;Min_cycle;Max_cycle;Signal;HPM_P1;HPM_P2
2023/08/03 01:56:18;;;;;;;7.80;2.25;;;15.00;99.90;;;;;;5065997;28;20036;-85
2023/08/03 01:58:44;;;;;;;4.75;1.95;;;15.00;99.90;;;;;;5046852;28;20040;-85
2023/08/03 02:01:10;;;;;;;4.95;1.80;;;15.00;99.90;;;;;;5048102;28;20033;-84
2023/08/03 02:03:35;;;;;;;8.20;2.20;;;14.90;99.90;;;;;;5049880;28;20028;-84
2023/08/03 02:06:01;;;;;;;6.45;2.08;;;15.00;99.90;;;;;;5050164;28;20035;-84
2023/08/03 02:08:27;;;;;;;8.52;2.10;;;14.90;99.90;;;;;;5066358;28;20558;-84
2023/08/03 02:10:54;;;;;;;5.05;1.63;;;14.90;99.90;;;;;;5058815;28;20055;-85
2023/08/03 02:13:20;;;;;;;6.30;2.10;;;14.80;99.90;;;;;;5067449;28;20037;-84
2023/08/03 02:15:46;;;;;;;7.03;2.10;;;14.80;99.90;;;;;;5059691;28;20031;-85
2023/08/03 02:18:12;;;;;;;7.53;1.98;;;14.80;99.90;;;;;;5062148;28;20115;-85
2023/08/03 02:20:37;;;;;;;6.25;1.67;;;14.80;99.90;;;;;;5061202;28;20067;-85
2023/08/03 02:23:03;;;;;;;6.05;1.90;;;14.80;99.90;;;;;;5046475;28;20043;-84
2023/08/03 02:25:29;;;;;;;7.63;1.80;;;14.80;99.90;;;;;;5047275;28;20040;-84
2023/08/03 02:27:55;;;;;;;6.55;2.00;;;14.80;99.90;;;;;;5083717;28;20097;-84
2023/08/03 02:30:21;;;;;;;6.95;1.80;;;14.80;99.90;;;;;;5099204;28;20039;-84
2023/08/03 02:32:47;;;;;;;13.38;2.10;;;14.80;99.90;;;;;;5082264;28;20055;-84
2023/08/03 02:35:14;;;;;;;7.80;2.00;;;14.80;99.90;;;;;;5083418;28;20044;-84
2023/08/03 02:37:41;;;;;;;4.40;1.73;;;14.80;99.90;;;;;;5063009;28;20120;-84
2023/08/03 02:40:14;;;;;;;6.40;1.85;;;14.80;99.90;;;;;;5062278;28;20142;-82
2023/08/03 02:42:41;;;;;;;9.73;2.00;;;14.80;99.90;;;;;;5060433;28;20027;-84
2023/08/03 02:45:08;;;;;;;9.68;1.98;;;14.80;99.90;;;;;;5063565;28;20032;-84
2023/08/03 02:47:34;;;;;;;9.68;2.33;;;14.70;99.90;;;;;;5073850;28;20400;-86
2023/08/03 02:50:01;;;;;;;8.13;2.00;;;14.70;99.90;;;;;;5054366;28;20062;-86
2023/08/03 02:52:26;;;;;;;8.43;2.63;;;14.80;99.90;;;;;;5060054;28;20485;-83
2023/08/03 02:54:52;;;;;;;6.20;2.03;;;14.80;99.90;;;;;;5061947;28;20031;-84
2023/08/03 02:57:20;;;;;;;4.30;2.10;;;14.80;99.90;;;;;;5041895;28;20032;-83
2023/08/03 02:59:49;;;;;;;5.65;2.15;;;14.80;99.90;;;;;;5069833;28;20550;-83
2023/08/03 03:02:19;;;;;;;5.45;1.85;;;14.80;99.90;;;;;;5057689;28;20036;-83
2023/08/03 03:04:46;;;;;;;7.82;1.92;;;14.80;99.90;;;;;;5071724;28;20143;-84
2023/08/03 03:07:12;;;;;;;7.35;2.00;;;14.90;99.90;;;;;;5076356;28;20486;-84
2023/08/03 03:09:38;;;;;;;6.05;1.83;;;14.80;99.90;;;;;;5069377;28;20119;-83
2023/08/03 03:12:06;;;;;;;4.95;2.03;;;14.90;99.90;;;;;;5073798;28;20025;-83
2023/08/03 03:14:42;;;;;;;8.90;2.10;;;14.80;99.90;;;;;;5056862;28;20459;-84
2023/08/03 03:17:08;;;;;;;11.60;2.45;;;14.90;99.90;;;;;;5089872;28;20032;-83
2023/08/03 03:19:34;;;;;;;7.45;2.05;;;14.90;99.90;;;;;;5067512;28;20033;-84
2023/08/03 03:22:04;;;;;;;12.27;2.83;;;14.90;99.90;;;;;;5052530;28;20050;-83
2023/08/03 03:24:30;;;;;;;11.55;2.58;;;14.90;99.90;;;;;;5060512;28;20037;-83
2023/08/03 03:26:56;;;;;;;5.93;1.88;;;14.90;99.90;;;;;;5063981;28;20609;-84
2023/08/03 03:29:22;;;;;;;8.40;1.90;;;14.90;99.90;;;;;;5085140;28;20085;-84
2023/08/03 03:31:49;;;;;;;8.85;2.00;;;14.90;99.90;;;;;;5059185;28;20029;-84
2023/08/03 03:34:16;;;;;;;9.55;1.92;;;14.80;99.90;;;;;;5053629;28;20566;-83
2023/08/03 03:36:43;;;;;;;5.03;1.90;;;14.80;99.90;;;;;;5073674;28;20081;-83
2023/08/03 03:39:09;;;;;;;8.15;1.98;;;14.80;99.90;;;;;;5041308;28;20043;-83
2023/08/03 03:41:35;;;;;;;5.82;1.95;;;14.70;99.90;;;;;;5059928;28;20043;-85
2023/08/03 03:44:01;;;;;;;9.18;2.20;;;14.70;99.90;;;;;;5035702;28;20120;-83
2023/08/03 03:46:27;;;;;;;4.03;1.67;;;14.70;99.90;;;;;;5051397;28;20029;-84
2023/08/03 03:48:53;;;;;;;8.35;2.00;;;14.60;99.90;;;;;;5046967;28;20037;-82
2023/08/03 03:51:21;;;;;;;5.47;1.70;;;14.70;99.90;;;;;;5068545;28;20033;-85
2023/08/03 03:53:52;;;;;;;7.38;1.90;;;14.60;99.90;;;;;;5062334;28;20123;-82
2023/08/03 03:56:18;;;;;;;9.50;2.28;;;14.60;99.90;;;;;;5048988;28;20060;-85
2023/08/03 03:58:43;;;;;;;8.55;1.58;;;14.60;99.90;;;;;;5070120;28;20203;-86
2023/08/03 04:01:09;;;;;;;9.60;2.58;;;14.60;99.90;;;;;;5056868;28;20493;-84
2023/08/03 04:03:35;;;;;;;7.03;1.88;;;14.50;99.90;;;;;;5057949;28;20037;-86
2023/08/03 04:06:04;;;;;;;9.73;1.67;;;14.50;99.90;;;;;;5068319;28;20092;-85
2023/08/03 04:08:30;;;;;;;8.90;1.73;;;14.50;99.90;;;;;;5065266;28;20474;-83
2023/08/03 04:10:56;;;;;;;7.25;1.58;;;14.50;99.90;;;;;;5072322;28;20024;-84
2023/08/03 04:13:21;;;;;;;8.35;1.80;;;14.50;99.90;;;;;;5023849;28;20062;-85
2023/08/03 04:15:48;;;;;;;5.15;1.73;;;14.50;99.90;;;;;;5057307;28;20070;-85
2023/08/03 04:18:14;;;;;;;7.47;1.75;;;14.50;99.90;;;;;;5064939;28;20037;-83
2023/08/03 04:20:40;;;;;;;7.97;1.73;;;14.40;99.90;;;;;;5053600;28;20054;-86
2023/08/03 04:23:06;;;;;;;9.65;1.77;;;14.40;99.90;;;;;;5064679;28;20485;-86
2023/08/03 04:25:32;;;;;;;8.85;2.08;;;14.40;99.90;;;;;;5059168;28;20417;-85
2023/08/03 04:28:02;;;;;;;8.43;2.15;;;14.40;99.90;;;;;;5066512;28;20396;-82
2023/08/03 04:30:34;;;;;;;4.45;1.40;;;14.40;99.90;;;;;;5057792;28;20040;-84
2023/08/03 04:33:00;;;;;;;4.20;1.70;;;14.40;99.90;;;;;;5022524;28;20033;-83
2023/08/03 04:35:28;;;;;;;6.90;1.90;;;14.50;99.90;;;;;;5051359;28;20036;-85
2023/08/03 04:38:03;;;;;;;5.38;1.77;;;14.50;99.90;;;;;;5066311;28;20033;-84
2023/08/03 04:40:31;;;;;;;6.18;1.83;;;14.50;99.90;;;;;;5033200;28;20049;-83
2023/08/03 04:42:57;;;;;;;7.47;2.17;;;14.50;99.90;;;;;;5035513;28;20039;-85
2023/08/03 04:45:23;;;;;;;8.55;2.00;;;14.50;99.90;;;;;;5071514;28;20048;-84
2023/08/03 04:47:49;;;;;;;7.82;1.85;;;14.50;99.90;;;;;;5046561;28;20025;-83
2023/08/03 04:50:15;;;;;;;7.10;1.80;;;14.50;99.90;;;;;;5058330;28;20032;-84
2023/08/03 04:52:41;;;;;;;11.35;2.10;;;14.50;99.90;;;;;;5070690;28;20032;-84
2023/08/03 04:55:08;;;;;;;5.97;2.13;;;14.50;99.90;;;;;;5059094;28;20417;-82
2023/08/03 04:57:33;;;;;;;8.65;1.95;;;14.60;99.90;;;;;;5071453;28;20050;-83
2023/08/03 05:00:00;;;;;;;6.57;2.25;;;14.60;99.90;;;;;;5066964;28;20058;-82
2023/08/03 05:02:26;;;;;;;8.50;1.83;;;14.60;99.90;;;;;;5072050;28;20028;-82
2023/08/03 05:04:52;;;;;;;5.13;1.70;;;14.60;99.90;;;;;;5070237;28;20527;-81
2023/08/03 05:07:18;;;;;;;6.93;1.77;;;14.60;99.90;;;;;;5055250;28;20048;-86
2023/08/03 05:09:44;;;;;;;4.93;1.60;;;14.50;99.90;;;;;;5053810;28;20067;-84
2023/08/03 05:12:10;;;;;;;5.57;1.65;;;14.50;99.90;;;;;;5073277;28;20496;-83
2023/08/03 05:14:36;;;;;;;4.25;1.45;;;14.50;99.90;;;;;;5040195;28;20088;-83
2023/08/03 05:17:01;;;;;;;5.55;1.77;;;14.50;99.90;;;;;;5056650;28;20028;-84
2023/08/03 05:19:27;;;;;;;4.72;1.83;;;14.50;99.90;;;;;;5065296;28;20037;-84
2023/08/03 05:21:53;;;;;;;4.95;1.60;;;14.50;99.90;;;;;;5067904;28;20044;-85
2023/08/03 05:24:19;;;;;;;7.72;1.70;;;14.50;99.90;;;;;;5042370;28;20405;-83
2023/08/03 05:26:45;;;;;;;5.38;2.08;;;14.50;99.90;;;;;;5068084;28;20032;-83
2023/08/03 05:29:11;;;;;;;10.30;2.35;;;14.50;99.90;;;;;;5072259;28;20469;-82
2023/08/03 05:31:36;;;;;;;5.55;1.55;;;14.50;99.90;;;;;;5064186;28;20036;-84
2023/08/03 05:34:02;;;;;;;8.10;1.60;;;14.50;99.90;;;;;;5068583;28;20032;-83
2023/08/03 05:36:28;;;;;;;5.13;1.20;;;14.60;99.90;;;;;;5070694;28;20516;-84
2023/08/03 05:38:54;;;;;;;7.30;1.38;;;14.60;99.90;;;;;;5075132;28;20066;-83
2023/08/03 05:41:25;;;;;;;4.70;1.70;;;14.60;99.90;;;;;;5074191;28;20207;-85
2023/08/03 05:43:51;;;;;;;6.45;1.20;;;14.60;99.90;;;;;;5060473;28;20040;-83
2023/08/03 05:46:19;;;;;;;6.85;1.58;;;14.60;99.90;;;;;;5066130;28;20060;-86
2023/08/03 05:48:52;;;;;;;7.95;1.50;;;14.60;99.90;;;;;;5052090;28;20063;-85
2023/08/03 05:51:54;;;;;;;7.28;1.15;;;14.60;99.90;;;;;;5063735;28;20063;-85
2023/08/03 05:55:29;;;;;;;16.83;3.70;;;14.60;99.90;;;;;;5058410;28;20033;-85
2023/08/03 05:58:05;;;;;;;16.58;2.63;;;14.60;99.90;;;;;;5067190;28;20075;-85
2023/08/03 06:01:20;;;;;;;4.05;1.42;;;14.50;99.90;;;;;;5081635;28;20051;-85
2023/08/03 06:03:47;;;;;;;6.78;1.38;;;14.50;99.90;;;;;;5068625;28;20033;-85
2023/08/03 06:06:21;;;;;;;7.22;1.17;;;14.50;99.90;;;;;;5057489;28;20261;-84
2023/08/03 06:08:50;;;;;;;3.60;0.90;;;14.50;99.90;;;;;;5053264;28;20039;-85
2023/08/03 06:11:20;;;;;;;5.03;2.28;;;14.40;99.90;;;;;;5070967;28;20043;-84
2023/08/03 06:13:46;;;;;;;9.60;2.05;;;14.40;99.90;;;;;;5055047;28;20037;-85
2023/08/03 06:16:13;;;;;;;3.05;0.90;;;14.40;99.90;;;;;;5065007;28;20024;-83
2023/08/03 06:18:59;;;;;;;5.07;1.17;;;14.40;99.90;;;;;;5058851;28;20112;-81
2023/08/03 06:21:26;;;;;;;;;;;14.40;99.90;;;;;;5051011;28;20105;-84
2023/08/03 06:23:54;;;;;;;3.85;0.63;;;14.40;99.90;;;;;;5078576;28;19913;-82
2023/08/03 06:26:21;;;;;;;7.05;0.70;;;14.30;99.90;;;;;;5066958;28;20040;-84
2023/08/03 06:28:49;;;;;;;3.55;0.77;;;14.30;99.90;;;;;;5061155;28;20024;-84
2023/08/03 06:31:17;;;;;;;5.53;1.10;;;14.40;99.90;;;;;;5056474;28;20037;-86
2023/08/03 06:33:44;;;;;;;5.97;0.80;;;14.40;99.90;;;;;;5067262;28;20033;-84
2023/08/03 06:36:25;;;;;;;5.80;0.98;;;14.30;99.90;;;;;;5062371;28;20017;-85
2023/08/03 06:38:51;;;;;;;5.75;0.90;;;14.40;99.90;;;;;;5067340;28;20052;-83
2023/08/03 06:41:17;;;;;;;4.00;0.75;;;14.40;99.90;;;;;;5068509;28;20063;-83
2023/08/03 06:43:44;;;;;;;3.72;0.68;;;14.40;99.90;;;;;;5054472;28;20033;-86
2023/08/03 06:46:10;;;;;;;5.88;1.10;;;14.40;99.90;;;;;;5065378;28;20036;-83
2023/08/03 06:48:36;;;;;;;2.72;0.80;;;14.50;99.90;;;;;;5051184;28;20080;-83
2023/08/03 06:51:03;;;;;;;3.72;0.70;;;14.40;99.90;;;;;;5062162;28;20545;-83
2023/08/03 06:53:30;;;;;;;2.47;1.00;;;14.50;99.90;;;;;;5064804;28;20025;-81
2023/08/03 06:55:55;;;;;;;5.82;0.70;;;14.50;99.90;;;;;;5036236;28;20041;-83
2023/08/03 06:58:21;;;;;;;2.60;0.80;;;14.50;99.90;;;;;;5052189;28;20025;-83
2023/08/03 07:00:47;;;;;;;5.25;1.00;;;14.50;99.90;;;;;;5067047;28;20024;-83
2023/08/03 07:03:13;;;;;;;4.85;0.90;;;14.50;99.90;;;;;;5069677;28;20043;-82
2023/08/03 07:05:40;;;;;;;6.15;1.35;;;14.60;99.90;;;;;;5067453;28;20021;-84
2023/08/03 07:08:06;;;;;;;3.72;0.98;;;14.60;99.90;;;;;;5056090;28;20033;-84
2023/08/03 07:10:34;;;;;;;2.38;0.60;;;14.60;99.90;;;;;;5044387;28;20563;-84
2023/08/03 07:12:59;;;;;;;2.83;0.77;;;14.60;99.90;;;;;;5069187;28;20025;-82
2023/08/03 07:15:25;;;;;;;3.40;0.60;;;14.60;99.90;;;;;;5052732;28;20040;-88
2023/08/03 07:17:51;;;;;;;4.88;0.90;;;14.60;99.90;;;;;;5066659;28;20040;-87
2023/08/03 07:20:18;;;;;;;5.75;0.98;;;14.60;99.90;;;;;;5071523;28;20534;-82
2023/08/03 07:22:48;;;;;;;5.30;0.80;;;14.70;99.90;;;;;;5068232;28;20036;-85
2023/08/03 07:25:14;;;;;;;4.45;0.82;;;14.70;99.90;;;;;;5067534;28;20032;-85
2023/08/03 07:27:41;;;;;;;3.38;0.63;;;14.70;99.90;;;;;;5055211;28;20036;-84
2023/08/03 07:30:08;;;;;;;3.85;0.52;;;14.80;99.90;;;;;;5046261;28;20029;-85
2023/08/03 07:32:34;;;;;;;4.53;0.82;;;14.80;99.90;;;;;;5076744;28;20042;-84
2023/08/03 07:35:01;;;;;;;3.95;0.70;;;14.90;99.90;;;;;;5075440;28;20537;-81
2023/08/03 07:37:27;;;;;;;2.90;0.57;;;14.80;99.90;;;;;;5068907;28;20033;-85
2023/08/03 07:39:53;;;;;;;5.45;0.90;;;14.80;99.90;;;;;;5066033;28;20096;-85
2023/08/03 07:42:18;;;;;;;4.13;0.80;;;14.90;99.90;;;;;;5070911;28;20036;-82
2023/08/03 07:44:44;;;;;;;5.45;0.90;;;14.90;99.90;;;;;;5068043;28;20551;-83
2023/08/03 07:47:10;;;;;;;8.30;1.42;;;14.90;99.90;;;;;;5058864;28;20046;-84
2023/08/03 07:49:36;;;;;;;4.50;0.88;;;14.90;99.90;;;;;;5060349;28;20063;-83
2023/08/03 07:52:01;;;;;;;2.67;0.70;;;14.90;99.90;;;;;;5062678;28;20025;-84
2023/08/03 07:54:27;;;;;;;1.85;0.90;;;14.90;99.90;;;;;;5064382;28;20090;-80
2023/08/03 07:56:53;;;;;;;6.50;0.70;;;15.00;99.90;;;;;;5074202;28;20116;-85
2023/08/03 07:59:19;;;;;;;4.30;0.80;;;15.00;99.90;;;;;;5054994;28;20041;-83
2023/08/03 08:01:46;;;;;;;3.53;0.55;;;15.00;99.90;;;;;;5068779;28;20084;-82
2023/08/03 08:04:13;;;;;;;3.25;0.80;;;15.00;99.90;;;;;;5086255;28;20040;-83
2023/08/03 08:06:39;;;;;;;1.88;0.45;;;14.90;99.90;;;;;;5071262;28;20096;-82
2023/08/03 08:09:06;;;;;;;2.60;0.70;;;14.90;99.90;;;;;;5081913;28;20536;-80
2023/08/03 08:11:32;;;;;;;4.95;0.73;;;15.00;99.90;;;;;;5077928;28;20401;-83
2023/08/03 08:13:59;;;;;;;3.05;0.55;;;15.00;99.90;;;;;;5083553;28;20067;-84
2023/08/03 08:16:25;;;;;;;4.85;0.85;;;15.10;99.90;;;;;;5060903;28;20402;-82
2023/08/03 08:18:51;;;;;;;4.97;0.90;;;15.10;99.90;;;;;;5089467;28;20774;-82
2023/08/03 08:21:17;;;;;;;4.57;0.80;;;15.10;99.90;;;;;;5075937;28;20036;-83
2023/08/03 08:23:43;;;;;;;2.95;0.60;;;15.20;99.90;;;;;;5079392;28;20044;-84
2023/08/03 08:26:17;;;;;;;4.03;0.73;;;15.30;99.90;;;;;;5070374;28;20037;-82
2023/08/03 08:28:45;;;;;;;5.78;0.85;;;15.40;99.90;;;;;;5063350;28;20036;-84
2023/08/03 08:31:11;;;;;;;2.30;0.60;;;15.50;99.90;;;;;;5069589;28;20021;-83
2023/08/03 08:33:37;;;;;;;2.85;0.73;;;15.50;99.90;;;;;;5051740;28;20037;-82
2023/08/03 08:36:03;;;;;;;4.43;0.68;;;15.60;99.90;;;;;;5053991;28;20502;-83
2023/08/03 08:38:30;;;;;;;2.13;0.50;;;15.50;99.90;;;;;;5048604;28;20406;-82
2023/08/03 08:41:00;;;;;;;3.58;0.73;;;15.50;99.90;;;;;;5062967;28;20397;-81
2023/08/03 08:43:25;;;;;;;8.05;0.70;;;15.50;99.90;;;;;;5062815;28;20036;-83
2023/08/03 08:45:52;;;;;;;5.75;0.73;;;15.40;99.90;;;;;;5072475;28;20089;-82
2023/08/03 08:48:18;;;;;;;5.78;0.85;;;15.50;99.90;;;;;;5041349;28;20612;-84
2023/08/03 08:50:44;;;;;;;2.55;0.63;;;15.50;99.90;;;;;;5054510;28;20116;-82
2023/08/03 08:53:12;;;;;;;3.25;0.60;;;15.40;99.90;;;;;;5062336;28;20092;-84
2023/08/03 08:55:38;;;;;;;4.53;0.60;;;15.40;99.90;;;;;;5044811;28;20107;-84
2023/08/03 08:58:04;;;;;;;3.60;0.77;;;15.40;99.90;;;;;;5026780;28;20117;-84
2023/08/03 09:00:30;;;;;;;2.33;0.55;;;15.30;99.90;;;;;;5062483;28;20032;-83
2023/08/03 09:03:00;;;;;;;0.77;0.35;;;15.40;99.90;;;;;;5072076;28;20032;-83
2023/08/03 09:05:28;;;;;;;5.72;0.85;;;15.40;99.90;;;;;;5051508;28;20480;-87
2023/08/03 09:08:02;;;;;;;3.97;0.82;;;15.30;99.90;;;;;;5035443;28;20459;-86
2023/08/03 09:10:28;;;;;;;2.22;0.55;;;15.30;99.90;;;;;;5052494;28;20038;-85
2023/08/03 09:12:54;;;;;;;2.85;0.55;;;15.30;99.90;;;;;;5063620;28;20380;-87
2023/08/03 09:15:38;;;;;;;2.50;0.70;;;15.30;99.90;;;;;;5069720;28;20086;-85
2023/08/03 09:18:05;;;;;;;6.80;0.80;;;15.30;99.90;;;;;;5048802;28;20602;-84
2023/08/03 09:20:31;;;;;;;3.75;0.70;;;15.40;99.90;;;;;;5065403;28;20127;-84
2023/08/03 09:22:57;;;;;;;1.92;0.45;;;15.40;99.90;;;;;;5063166;28;20055;-83
2023/08/03 09:25:23;;;;;;;5.10;0.75;;;15.40;99.90;;;;;;5031964;28;20512;-85
2023/08/03 09:27:51;;;;;;;5.35;0.52;;;15.50;99.90;;;;;;5038788;28;20097;-85
2023/08/03 09:30:17;;;;;;;3.30;0.80;;;15.50;99.90;;;;;;5067194;28;20033;-83
2023/08/03 09:32:44;;;;;;;1.95;0.60;;;15.70;99.90;;;;;;5054074;28;20033;-86
2023/08/03 09:35:25;;;;;;;2.38;0.65;;;15.80;99.90;;;;;;5061164;28;20066;-87
2023/08/03 09:38:23;;;;;;;4.00;0.47;;;15.90;99.90;;;;;;5058003;28;20707;-85
2023/08/03 09:40:50;;;;;;;1.80;0.60;;;16.00;99.90;;;;;;5061333;28;20281;-84
2023/08/03 09:43:19;;;;;;;3.13;0.55;;;16.00;99.90;;;;;;5054731;28;20072;-84
2023/08/03 09:45:46;;;;;;;2.03;0.47;;;16.00;99.90;;;;;;5061708;28;20519;-82
2023/08/03 09:48:12;;;;;;;1.35;0.60;;;16.00;99.90;;;;;;5061832;28;20652;-82
2023/08/03 09:50:39;;;;;;;0.93;0.40;;;16.00;99.90;;;;;;5068526;28;20063;-82
2023/08/03 09:53:17;;;;;;;2.33;0.57;;;15.90;99.90;;;;;;5061826;28;20089;-83
2023/08/03 09:55:47;;;;;;;5.35;0.77;;;16.00;99.90;;;;;;5051350;28;20085;-87
2023/08/03 09:58:16;;;;;;;3.55;0.65;;;15.90;99.90;;;;;;5048134;28;20051;-84
2023/08/03 10:00:44;;;;;;;1.60;0.50;;;15.90;99.90;;;;;;5065328;28;20508;-83
2023/08/03 10:03:14;;;;;;;1.95;0.40;;;15.90;99.90;;;;;;5067075;28;20048;-85
2023/08/03 10:05:49;;;;;;;2.60;0.40;;;15.90;99.90;;;;;;5066110;28;20039;-86
2023/08/03 10:08:21;;;;;;;;;;;16.00;99.90;;;;;;5066705;28;20035;-84
2023/08/03 10:10:48;;;;;;;3.17;1.52;;;16.10;99.90;;;;;;5071295;28;20567;-86
2023/08/03 10:13:15;;;;;;;0.82;0.30;;;16.10;99.90;;;;;;5044475;28;20036;-87
2023/08/03 10:15:42;;;;;;;3.63;0.35;;;16.10;99.90;;;;;;5069479;28;20029;-86
2023/08/03 10:18:08;;;;;;;2.15;0.50;;;16.20;99.90;;;;;;5038250;28;20033;-85
2023/08/03 10:20:39;;;;;;;2.10;0.35;;;16.40;99.90;;;;;;5050088;28;20443;-87
2023/08/03 10:23:15;;;;;;;1.40;0.50;;;16.50;99.90;;;;;;5053463;28;20032;-85
2023/08/03 10:25:55;;;;;;;3.30;0.45;;;16.70;99.90;;;;;;5043656;28;20039;-88
2023/08/03 10:28:38;;;;;;;8.73;1.05;;;17.00;99.90;;;;;;5049500;28;20033;-85
2023/08/03 10:31:07;;;;;;;1.80;0.45;;;17.20;99.90;;;;;;5069974;28;20677;-88
2023/08/03 10:33:49;;;;;;;1.80;0.52;;;17.40;99.90;;;;;;5052055;28;20033;-84
2023/08/03 10:36:53;;;;;;;1.55;0.20;;;17.60;99.90;;;;;;5074231;28;20028;-87
2023/08/03 10:39:46;;;;;;;0.40;0.17;;;17.70;99.90;;;;;;5054553;28;20031;-84
2023/08/03 10:42:29;;;;;;;1.17;0.30;;;17.70;99.90;;;;;;5053040;28;20037;-87
2023/08/03 10:48:46;;;;;;;1.45;0.35;;;17.80;99.90;;;;;;5056657;28;20132;-86
2023/08/03 10:51:22;;;;;;;2.30;0.50;;;17.90;99.90;;;;;;5040815;28;20060;-84
2023/08/03 10:53:48;;;;;;;1.48;0.35;;;17.90;99.90;;;;;;5069637;28;20103;-83
2023/08/03 10:56:14;;;;;;;4.97;0.40;;;18.00;99.90;;;;;;5065920;28;20064;-86
2023/08/03 10:58:48;;;;;;;1.88;0.35;;;18.00;99.90;;;;;;5057358;28;20036;-85
2023/08/03 11:01:21;;;;;;;1.58;0.30;;;18.00;99.90;;;;;;5035338;28;20087;-85
2023/08/03 11:03:47;;;;;;;4.35;0.47;;;18.00;99.90;;;;;;5026217;28;20030;-87
2023/08/03 11:06:13;;;;;;;1.85;0.43;;;18.10;99.90;;;;;;5045154;28;20366;-86
2023/08/03 11:08:39;;;;;;;1.75;0.40;;;18.00;99.90;;;;;;5071259;28;20044;-84
2023/08/03 11:11:13;;;;;;;2.65;0.50;;;18.00;99.90;;;;;;5051129;28;20554;-85
2023/08/03 11:13:41;;;;;;;1.40;0.40;;;18.00;99.90;;;;;;5051659;28;20539;-85
2023/08/03 11:16:38;;;;;;;2.45;0.43;;;18.00;99.90;;;;;;5033816;28;20573;-90
2023/08/03 11:22:34;;;;;;;2.08;0.30;;;17.90;99.90;;;;;;5074809;28;19920;-89
2023/08/03 11:25:06;;;;;;;3.50;0.47;;;17.90;99.90;;;;;;5053516;28;20035;-87
2023/08/03 11:27:32;;;;;;;1.50;0.40;;;17.80;99.90;;;;;;5030079;28;20482;-86
2023/08/03 11:30:00;;;;;;;2.17;0.30;;;17.70;99.90;;;;;;5037285;28;20128;-87
2023/08/03 11:32:29;;;;;;;3.53;0.40;;;17.70;99.90;;;;;;5047751;28;20044;-89
2023/08/03 11:34:59;;;;;;;1.05;0.30;;;17.50;99.90;;;;;;5062258;28;20353;-90
2023/08/03 11:37:35;;;;;;;1.52;0.40;;;17.50;99.90;;;;;;5057633;28;20029;-87
2023/08/03 11:40:06;;;;;;;2.47;0.43;;;17.50;99.90;;;;;;5039666;28;20148;-86
2023/08/03 11:42:38;;;;;;;1.40;0.50;;;17.60;99.90;;;;;;5052664;28;20040;-88
2023/08/03 11:45:05;;;;;;;3.47;0.52;;;17.70;99.90;;;;;;5049242;28;20036;-88
2023/08/03 11:47:42;;;;;;;2.00;0.30;;;17.90;99.90;;;;;;5047810;28;20021;-85
2023/08/03 11:50:08;;;;;;;1.23;0.30;;;18.20;99.90;;;;;;5058647;28;20036;-85
2023/08/03 11:52:34;;;;;;;5.35;0.47;;;18.40;99.90;;;;;;5053818;28;20114;-88
2023/08/03 11:55:00;;;;;;;2.28;0.40;;;18.70;99.90;;;;;;5047643;28;20044;-79
2023/08/03 12:00:11;;;;;;;2.28;0.20;;;18.80;99.90;;;;;;5061370;28;20086;-83
2023/08/03 12:02:45;;;;;;;1.85;0.22;;;18.90;99.90;;;;;;5049706;28;20052;-86
2023/08/03 12:05:15;;;;;;;0.40;0.10;;;18.90;99.90;;;;;;5060894;28;20035;-86
2023/08/03 12:07:40;;;;;;;1.50;0.60;;;18.80;99.90;;;;;;5060781;28;20032;-85
2023/08/03 12:10:14;;;;;;;1.60;0.22;;;18.70;99.90;;;;;;5045517;28;20159;-83
2023/08/03 12:12:42;;;;;;;3.10;0.43;;;18.60;99.90;;;;;;5031453;28;20036;-82
2023/08/03 12:15:09;;;;;;;1.95;0.30;;;18.50;99.90;;;;;;5058552;28;20045;-84
2023/08/03 12:17:36;;;;;;;0.38;0.28;;;18.50;99.90;;;;;;5032754;28;20037;-84
2023/08/03 12:20:02;;;;;;;1.73;0.40;;;18.60;99.90;;;;;;5054341;28;20060;-83
2023/08/03 12:22:28;;;;;;;1.65;0.28;;;18.70;99.90;;;;;;5057298;28;20063;-84
2023/08/03 12:24:53;;;;;;;0.90;0.20;;;18.90;99.90;;;;;;5056061;28;20037;-83
2023/08/03 12:27:19;;;;;;;0.50;0.17;;;19.20;99.90;;;;;;5042105;28;20552;-83
2023/08/03 12:29:45;;;;;;;0.93;0.47;;;19.30;99.90;;;;;;5060565;28;20051;-82
2023/08/03 12:32:11;;;;;;;0.80;0.20;;;19.50;99.90;;;;;;5051636;28;20056;-84
2023/08/03 12:34:37;;;;;;;1.98;0.30;;;19.60;99.90;;;;;;5064382;28;20045;-86
2023/08/03 12:37:06;;;;;;;0.60;0.28;;;19.60;99.90;;;;;;5061895;28;20060;-86
2023/08/03 12:39:31;;;;;;;0.75;0.20;;;19.70;99.90;;;;;;5048025;28;20047;-83
2023/08/03 12:41:57;;;;;;;0.98;0.32;;;19.70;99.90;;;;;;5069042;28;20025;-83
2023/08/03 12:44:26;;;;;;;1.58;0.50;;;19.70;99.90;;;;;;5045781;28;20364;-84
2023/08/03 12:46:52;;;;;;;0.88;0.20;;;19.80;99.90;;;;;;5057252;28;20027;-85
2023/08/03 12:49:18;;;;;;;0.70;0.20;;;19.80;99.90;;;;;;5042489;28;20400;-85
2023/08/03 12:51:44;;;;;;;3.25;0.38;;;19.80;99.90;;;;;;5063334;28;20109;-83
2023/08/03 12:54:10;;;;;;;1.05;0.35;;;19.80;99.90;;;;;;5056016;28;20484;-86
2023/08/03 12:56:38;;;;;;;1.02;0.20;;;19.80;99.90;;;;;;5061883;28;20102;-86
2023/08/03 12:59:05;;;;;;;2.20;0.30;;;19.80;99.90;;;;;;5057149;28;20040;-86
2023/08/03 13:01:32;;;;;;;1.95;0.30;;;19.70;99.90;;;;;;5061104;28;20038;-82
2023/08/03 13:03:57;;;;;;;0.85;0.22;;;19.60;99.90;;;;;;5063441;28;20509;-83
2023/08/03 13:06:23;;;;;;;0.73;0.25;;;19.50;99.90;;;;;;5055837;28;20033;-82
2023/08/03 13:08:49;;;;;;;1.83;0.30;;;19.50;99.90;;;;;;5064952;28;20036;-78
2023/08/03 13:11:15;;;;;;;1.45;0.25;;;19.60;99.90;;;;;;5023713;28;20040;-82
2023/08/03 13:13:41;;;;;;;1.95;0.40;;;19.70;99.90;;;;;;5059262;28;20040;-82
2023/08/03 13:16:08;;;;;;;2.15;0.30;;;19.70;99.90;;;;;;5064007;28;20028;-78
2023/08/03 13:18:34;;;;;;;1.70;0.55;;;19.80;99.90;;;;;;5024215;28;20025;-82
2023/08/03 13:21:00;;;;;;;0.30;0.30;;;19.90;99.90;;;;;;5059539;28;20250;-84
2023/08/03 13:23:25;;;;;;;2.90;0.30;;;19.90;99.90;;;;;;5072883;28;20032;-83
2023/08/03 13:25:51;;;;;;;1.63;0.20;;;20.00;99.90;;;;;;5063879;28;20052;-85
2023/08/03 13:28:17;;;;;;;0.85;0.20;;;20.00;99.90;;;;;;5059693;28;20029;-84
2023/08/03 13:30:43;;;;;;;2.05;0.32;;;20.00;99.90;;;;;;5056809;28;20518;-83
2023/08/03 13:33:08;;;;;;;1.45;0.20;;;20.00;99.90;;;;;;5070133;28;20449;-83
2023/08/03 13:35:34;;;;;;;0.43;0.30;;;20.00;99.90;;;;;;5071063;28;20425;-83
2023/08/03 13:38:00;;;;;;;1.58;0.20;;;19.90;99.90;;;;;;5070853;28;20036;-84
2023/08/03 13:40:26;;;;;;;1.33;0.30;;;19.80;99.90;;;;;;5064951;28;20653;-83
2023/08/03 13:42:52;;;;;;;5.05;0.43;;;19.70;99.90;;;;;;5063449;28;20033;-81
2023/08/03 13:45:17;;;;;;;0.73;0.20;;;19.80;99.90;;;;;;5058218;28;20041;-82
2023/08/03 13:47:43;;;;;;;0.25;0.20;;;19.80;99.90;;;;;;5067166;28;20711;-82
2023/08/03 13:50:09;;;;;;;1.45;0.20;;;19.90;99.90;;;;;;5056824;28;20051;-82
2023/08/03 13:52:35;;;;;;;0.50;0.20;;;20.00;99.90;;;;;;5058533;28;20020;-82
2023/08/03 13:55:02;;;;;;;0.40;0.17;;;20.00;99.90;;;;;;5065965;28;20033;-82
2023/08/03 13:57:29;;;;;;;4.18;0.20;;;20.00;99.90;;;;;;5068563;28;20413;-81
2023/08/03 13:59:55;;;;;;;0.65;0.30;;;19.90;99.90;;;;;;5064275;28;20043;-82
2023/08/03 14:02:21;;;;;;;1.08;0.20;;;19.90;99.90;;;;;;5056298;28;20036;-81
2023/08/03 14:04:47;;;;;;;3.05;0.40;;;19.90;99.90;;;;;;5075418;28;20040;-82
2023/08/03 14:07:16;;;;;;;2.10;0.20;;;19.90;99.90;;;;;;5073135;28;20493;-81
2023/08/03 14:09:43;;;;;;;2.13;0.30;;;19.90;99.90;;;;;;5036828;28;20120;-82
2023/08/03 14:12:09;;;;;;;0.70;0.20;;;19.80;99.90;;;;;;5073533;28;20028;-84
2023/08/03 14:14:35;;;;;;;1.75;0.22;;;19.80;99.90;;;;;;5066595;28;20090;-83
2023/08/03 14:17:00;;;;;;;4.15;1.05;;;19.80;99.90;;;;;;5070498;28;20186;-81
2023/08/03 14:19:26;;;;;;;0.80;0.30;;;19.60;99.90;;;;;;5065925;28;20087;-82
2023/08/03 14:21:52;;;;;;;0.57;0.20;;;19.50;99.90;;;;;;5069095;28;20037;-80
2023/08/03 14:24:18;;;;;;;1.80;0.20;;;19.40;99.90;;;;;;5066926;28;20147;-82
2023/08/03 14:26:44;;;;;;;2.88;0.30;;;19.40;99.90;;;;;;5064936;28;20041;-82
2023/08/03 14:29:12;;;;;;;3.30;0.15;;;19.40;99.90;;;;;;5072036;28;20036;-80
2023/08/03 14:31:38;;;;;;;0.95;0.20;;;19.30;99.90;;;;;;5073982;28;20096;-81
2023/08/03 14:34:04;;;;;;;0.43;0.10;;;19.30;99.90;;;;;;5070226;28;20517;-81
2023/08/03 14:36:29;;;;;;;2.55;0.40;;;19.30;99.90;;;;;;5073893;28;20115;-80
2023/08/03 14:38:55;;;;;;;0.98;0.30;;;19.30;99.90;;;;;;5056690;28;20041;-81
2023/08/03 14:41:24;;;;;;;0.75;0.20;;;19.20;99.90;;;;;;5070738;28;20029;-82
2023/08/03 14:43:51;;;;;;;1.10;0.20;;;19.20;99.90;;;;;;5062413;28;20452;-83
2023/08/03 14:46:17;;;;;;;1.75;0.20;;;19.20;99.90;;;;;;5067995;28;20021;-82
2023/08/03 14:48:44;;;;;;;1.23;0.30;;;19.20;99.90;;;;;;5057787;28;20037;-84
2023/08/03 14:51:10;;;;;;;1.33;0.30;;;19.30;99.90;;;;;;5068833;28;20038;-81
2023/08/03 14:53:37;;;;;;;0.47;0.20;;;19.30;99.90;;;;;;5085730;28;20107;-79
2023/08/03 14:56:04;;;;;;;4.38;0.65;;;19.30;99.90;;;;;;5069194;28;20092;-82
2023/08/03 15:01:12;;;;;;;0.55;0.30;;;19.20;99.90;;;;;;5093252;23;20527;-79